sensor_id;sensor_type;location;lat;lon;timestamp;P1;durP1;ratioP1;P2;durP2;ratioP2
5967;SDS011;3010;51.028;4.170;2023-02-01T00:00:39;30.43;;;12.13;;
5967;SDS011;3010;51.028;4.170;2023-02-01T00:03:06;27.07;;;11.80;;
5967;SDS011;3010;51.028;4.170;2023-02-01T00:05:32;33.03;;;10.83;;
5967;SDS011;3010;51.028;4.170;2023-02-01T00:07:59;28.08;;;12.20;;
5967;SDS011;3010;51.028;4.170;2023-02-01T00:10:25;30.73;;;11.87;;
5967;SDS011;3010;51.028;4.170;2023-02-01T00:12:52;32.23;;;11.20;;
5967;SDS011;3010;51.028;4.170;2023-02-01T00:15:19;25.43;;;10.70;;
5967;SDS011;3010;51.028;4.170;2023-02-01T00:17:45;31.53;;;10.63;;
5967;SDS011;3010;51.028;4.170;2023-02-01T00:20:12;31.63;;;9.63;;
5967;SDS011;3010;51.028;4.170;2023-02-01T00:22:38;26.87;;;9.60;;
5967;SDS011;3010;51.028;4.170;2023-02-01T00:25:05;22.37;;;8.97;;
5967;SDS011;3010;51.028;4.170;2023-02-01T00:27:32;30.08;;;10.85;;
5967;SDS011;3010;51.028;4.170;2023-02-01T00:29:58;24.20;;;8.70;;
5967;SDS011;3010;51.028;4.170;2023-02-01T00:32:25;25.73;;;8.43;;
5967;SDS011;3010;51.028;4.170;2023-02-01T00:34:51;26.13;;;8.20;;
5967;SDS011;3010;51.028;4.170;2023-02-01T00:37:18;22.27;;;8.30;;
5967;SDS011;3010;51.028;4.170;2023-02-01T00:39:45;18.87;;;7.87;;
5967;SDS011;3010;51.028;4.170;2023-02-01T00:42:11;23.93;;;7.60;;
5967;SDS011;3010;51.028;4.170;2023-02-01T00:44:38;21.53;;;7.27;;
5967;SDS011;3010;51.028;4.170;2023-02-01T00:47:04;23.00;;;7.33;;
5967;SDS011;3010;51.028;4.170;2023-02-01T00:49:31;19.93;;;6.83;;
5967;SDS011;3010;51.028;4.170;2023-02-01T00:51:58;21.23;;;7.50;;
5967;SDS011;3010;51.028;4.170;2023-02-01T00:54:24;20.37;;;5.73;;
5967;SDS011;3010;51.028;4.170;2023-02-01T00:56:51;25.12;;;8.20;;
5967;SDS011;3010;51.028;4.170;2023-02-01T00:59:17;14.60;;;6.00;;
5967;SDS011;3010;51.028;4.170;2023-02-01T01:01:44;17.03;;;5.93;;
5967;SDS011;3010;51.028;4.170;2023-02-01T01:04:10;17.30;;;6.00;;
5967;SDS011;3010;51.028;4.170;2023-02-01T01:06:37;27.50;;;7.07;;
5967;SDS011;3010;51.028;4.170;2023-02-01T01:09:05;19.37;;;6.33;;
5967;SDS011;3010;51.028;4.170;2023-02-01T01:11:32;26.60;;;7.47;;
5967;SDS011;3010;51.028;4.170;2023-02-01T01:13:57;25.83;;;7.33;;
5967;SDS011;3010;51.028;4.170;2023-02-01T01:16:24;20.60;;;6.77;;
5967;SDS011;3010;51.028;4.170;2023-02-01T01:18:51;26.27;;;8.25;;
5967;SDS011;3010;51.028;4.170;2023-02-01T01:21:18;20.73;;;6.43;;
5967;SDS011;3010;51.028;4.170;2023-02-01T01:23:45;18.90;;;5.93;;
5967;SDS011;3010;51.028;4.170;2023-02-01T01:26:18;17.93;;;5.70;;
5967;SDS011;3010;51.028;4.170;2023-02-01T01:28:44;19.33;;;5.33;;
5967;SDS011;3010;51.028;4.170;2023-02-01T01:31:11;25.93;;;5.73;;
5967;SDS011;3010;51.028;4.170;2023-02-01T01:33:37;16.03;;;6.50;;
5967;SDS011;3010;51.028;4.170;2023-02-01T01:36:07;18.47;;;5.37;;
5967;SDS011;3010;51.028;4.170;2023-02-01T01:38:35;13.63;;;4.70;;
5967;SDS011;3010;51.028;4.170;2023-02-01T01:41:02;15.70;;;5.33;;
5967;SDS011;3010;51.028;4.170;2023-02-01T01:46:24;16.27;;;5.63;;
5967;SDS011;3010;51.028;4.170;2023-02-01T01:48:50;15.93;;;5.23;;
5967;SDS011;3010;51.028;4.170;2023-02-01T01:51:17;22.13;;;5.57;;
5967;SDS011;3010;51.028;4.170;2023-02-01T01:54:06;17.73;;;5.50;;
5967;SDS011;3010;51.028;4.170;2023-02-01T01:56:09;20.83;;;5.47;;
5967;SDS011;3010;51.028;4.170;2023-02-01T01:58:35;25.60;;;5.70;;
5967;SDS011;3010;51.028;4.170;2023-02-01T02:01:02;19.10;;;5.73;;
5967;SDS011;3010;51.028;4.170;2023-02-01T02:03:30;19.87;;;5.30;;
5967;SDS011;3010;51.028;4.170;2023-02-01T02:05:55;17.23;;;5.57;;
5967;SDS011;3010;51.028;4.170;2023-02-01T02:08:22;23.95;;;6.20;;
5967;SDS011;3010;51.028;4.170;2023-02-01T02:10:48;22.42;;;6.78;;
5967;SDS011;3010;51.028;4.170;2023-02-01T02:13:36;19.43;;;6.23;;
5967;SDS011;3010;51.028;4.170;2023-02-01T02:19:15;18.10;;;5.20;;
5967;SDS011;3010;51.028;4.170;2023-02-01T02:35:26;16.47;;;5.43;;
5967;SDS011;3010;51.028;4.170;2023-02-01T02:40:46;25.23;;;6.50;;
5967;SDS011;3010;51.028;4.170;2023-02-01T02:46:05;23.67;;;5.53;;
5967;SDS011;3010;51.028;4.170;2023-02-01T02:49:29;22.00;;;6.80;;
5967;SDS011;3010;51.028;4.170;2023-02-01T02:51:28;20.37;;;5.77;;
5967;SDS011;3010;51.028;4.170;2023-02-01T02:54:30;10.57;;;4.93;;
5967;SDS011;3010;51.028;4.170;2023-02-01T02:57:20;13.67;;;4.97;;
5967;SDS011;3010;51.028;4.170;2023-02-01T03:00:05;20.90;;;6.07;;
5967;SDS011;3010;51.028;4.170;2023-02-01T03:02:49;13.97;;;4.77;;
5967;SDS011;3010;51.028;4.170;2023-02-01T03:05:34;17.03;;;5.37;;
5967;SDS011;3010;51.028;4.170;2023-02-01T03:08:05;19.63;;;5.33;;
5967;SDS011;3010;51.028;4.170;2023-02-01T03:13:38;23.57;;;6.23;;
5967;SDS011;3010;51.028;4.170;2023-02-01T03:21:40;24.52;;;7.25;;
5967;SDS011;3010;51.028;4.170;2023-02-01T03:24:12;23.40;;;6.23;;
5967;SDS011;3010;51.028;4.170;2023-02-01T03:26:41;22.47;;;6.77;;
5967;SDS011;3010;51.028;4.170;2023-02-01T03:29:12;22.13;;;5.90;;
5967;SDS011;3010;51.028;4.170;2023-02-01T03:31:35;19.50;;;5.70;;
5967;SDS011;3010;51.028;4.170;2023-02-01T03:34:03;15.97;;;5.70;;
5967;SDS011;3010;51.028;4.170;2023-02-01T03:41:35;24.07;;;6.00;;
5967;SDS011;3010;51.028;4.170;2023-02-01T03:44:17;16.33;;;5.87;;
5967;SDS011;3010;51.028;4.170;2023-02-01T03:46:49;18.20;;;5.47;;
5967;SDS011;3010;51.028;4.170;2023-02-01T03:49:17;18.20;;;6.03;;
5967;SDS011;3010;51.028;4.170;2023-02-01T03:51:41;19.30;;;5.63;;
5967;SDS011;3010;51.028;4.170;2023-02-01T03:54:09;26.93;;;6.33;;
5967;SDS011;3010;51.028;4.170;2023-02-01T03:56:35;21.07;;;6.93;;
5967;SDS011;3010;51.028;4.170;2023-02-01T03:59:00;20.60;;;6.17;;
5967;SDS011;3010;51.028;4.170;2023-02-01T04:01:28;28.27;;;6.87;;
5967;SDS011;3010;51.028;4.170;2023-02-01T04:03:54;20.97;;;6.30;;
5967;SDS011;3010;51.028;4.170;2023-02-01T04:06:20;26.95;;;8.25;;
5967;SDS011;3010;51.028;4.170;2023-02-01T04:08:47;26.30;;;6.70;;
5967;SDS011;3010;51.028;4.170;2023-02-01T04:11:13;25.90;;;8.23;;
5967;SDS011;3010;51.028;4.170;2023-02-01T04:13:40;21.20;;;6.90;;
5967;SDS011;3010;51.028;4.170;2023-02-01T04:16:07;17.07;;;5.77;;
5967;SDS011;3010;51.028;4.170;2023-02-01T04:18:33;19.03;;;6.23;;
5967;SDS011;3010;51.028;4.170;2023-02-01T04:21:00;29.87;;;7.87;;
5967;SDS011;3010;51.028;4.170;2023-02-01T04:23:26;16.87;;;5.60;;
5967;SDS011;3010;51.028;4.170;2023-02-01T04:25:53;18.83;;;5.70;;
5967;SDS011;3010;51.028;4.170;2023-02-01T04:28:19;21.10;;;5.77;;
5967;SDS011;3010;51.028;4.170;2023-02-01T04:30:46;21.37;;;5.07;;
5967;SDS011;3010;51.028;4.170;2023-02-01T04:33:13;21.87;;;5.63;;
5967;SDS011;3010;51.028;4.170;2023-02-01T04:35:39;20.90;;;5.40;;
5967;SDS011;3010;51.028;4.170;2023-02-01T04:38:06;25.42;;;6.90;;
5967;SDS011;3010;51.028;4.170;2023-02-01T04:40:32;21.60;;;6.10;;
5967;SDS011;3010;51.028;4.170;2023-02-01T04:43:00;19.50;;;5.73;;
5967;SDS011;3010;51.028;4.170;2023-02-01T04:45:28;23.93;;;6.60;;
5967;SDS011;3010;51.028;4.170;2023-02-01T04:47:55;27.90;;;8.07;;
5967;SDS011;3010;51.028;4.170;2023-02-01T04:50:21;25.43;;;6.50;;
5967;SDS011;3010;51.028;4.170;2023-02-01T04:52:48;24.07;;;6.27;;
5967;SDS011;3010;51.028;4.170;2023-02-01T04:55:15;24.27;;;6.80;;
5967;SDS011;3010;51.028;4.170;2023-02-01T04:57:41;21.83;;;5.63;;
5967;SDS011;3010;51.028;4.170;2023-02-01T05:00:08;26.15;;;7.43;;
5967;SDS011;3010;51.028;4.170;2023-02-01T05:02:34;21.67;;;5.60;;
5967;SDS011;3010;51.028;4.170;2023-02-01T05:05:01;22.27;;;7.25;;
5967;SDS011;3010;51.028;4.170;2023-02-01T05:07:28;23.03;;;6.00;;
5967;SDS011;3010;51.028;4.170;2023-02-01T05:09:54;24.90;;;5.17;;
5967;SDS011;3010;51.028;4.170;2023-02-01T05:12:21;20.67;;;4.77;;
5967;SDS011;3010;51.028;4.170;2023-02-01T05:15:06;14.13;;;5.50;;
5967;SDS011;3010;51.028;4.170;2023-02-01T05:17:32;16.27;;;4.87;;
5967;SDS011;3010;51.028;4.170;2023-02-01T05:19:59;26.63;;;5.13;;
5967;SDS011;3010;51.028;4.170;2023-02-01T05:22:25;20.27;;;5.87;;
5967;SDS011;3010;51.028;4.170;2023-02-01T05:24:52;19.77;;;5.07;;
5967;SDS011;3010;51.028;4.170;2023-02-01T05:27:19;16.90;;;4.47;;
5967;SDS011;3010;51.028;4.170;2023-02-01T05:29:45;17.03;;;5.03;;
5967;SDS011;3010;51.028;4.170;2023-02-01T05:32:12;18.20;;;5.30;;
5967;SDS011;3010;51.028;4.170;2023-02-01T05:34:38;20.50;;;5.83;;
5967;SDS011;3010;51.028;4.170;2023-02-01T05:37:05;23.75;;;6.60;;
5967;SDS011;3010;51.028;4.170;2023-02-01T05:39:32;18.43;;;5.67;;
5967;SDS011;3010;51.028;4.170;2023-02-01T05:41:58;26.87;;;6.73;;
5967;SDS011;3010;51.028;4.170;2023-02-01T05:44:25;14.47;;;4.63;;
5967;SDS011;3010;51.028;4.170;2023-02-01T05:46:51;15.87;;;5.30;;
5967;SDS011;3010;51.028;4.170;2023-02-01T05:49:18;14.87;;;5.50;;
5967;SDS011;3010;51.028;4.170;2023-02-01T05:51:44;31.90;;;8.40;;
5967;SDS011;3010;51.028;4.170;2023-02-01T05:54:11;20.27;;;5.70;;
5967;SDS011;3010;51.028;4.170;2023-02-01T05:56:38;26.85;;;6.78;;
5967;SDS011;3010;51.028;4.170;2023-02-01T05:59:04;20.80;;;6.37;;
5967;SDS011;3010;51.028;4.170;2023-02-01T06:01:31;23.73;;;7.35;;
5967;SDS011;3010;51.028;4.170;2023-02-01T06:03:57;21.87;;;6.40;;
5967;SDS011;3010;51.028;4.170;2023-02-01T06:06:24;26.37;;;6.60;;
5967;SDS011;3010;51.028;4.170;2023-02-01T06:08:51;22.40;;;6.03;;
5967;SDS011;3010;51.028;4.170;2023-02-01T06:11:17;18.47;;;6.27;;
5967;SDS011;3010;51.028;4.170;2023-02-01T06:13:44;12.43;;;5.63;;
5967;SDS011;3010;51.028;4.170;2023-02-01T06:16:10;18.63;;;5.80;;
5967;SDS011;3010;51.028;4.170;2023-02-01T06:18:37;24.92;;;6.60;;
5967;SDS011;3010;51.028;4.170;2023-02-01T06:21:03;25.83;;;7.20;;
5967;SDS011;3010;51.028;4.170;2023-02-01T06:23:30;17.47;;;6.27;;
5967;SDS011;3010;51.028;4.170;2023-02-01T06:26:06;25.13;;;5.30;;
5967;SDS011;3010;51.028;4.170;2023-02-01T06:28:35;20.57;;;6.73;;
5967;SDS011;3010;51.028;4.170;2023-02-01T06:31:03;20.27;;;5.53;;
5967;SDS011;3010;51.028;4.170;2023-02-01T06:33:29;19.47;;;5.50;;
5967;SDS011;3010;51.028;4.170;2023-02-01T06:35:58;23.53;;;5.80;;
5967;SDS011;3010;51.028;4.170;2023-02-01T06:38:25;16.67;;;5.50;;
5967;SDS011;3010;51.028;4.170;2023-02-01T06:40:53;23.67;;;5.77;;
5967;SDS011;3010;51.028;4.170;2023-02-01T06:43:19;17.30;;;5.90;;
5967;SDS011;3010;51.028;4.170;2023-02-01T06:45:46;17.00;;;5.43;;
5967;SDS011;3010;51.028;4.170;2023-02-01T06:48:12;21.77;;;6.13;;
5967;SDS011;3010;51.028;4.170;2023-02-01T06:50:39;20.10;;;5.33;;
5967;SDS011;3010;51.028;4.170;2023-02-01T06:53:05;18.17;;;5.50;;
5967;SDS011;3010;51.028;4.170;2023-02-01T06:55:32;18.43;;;5.77;;
5967;SDS011;3010;51.028;4.170;2023-02-01T06:57:59;20.00;;;5.63;;
5967;SDS011;3010;51.028;4.170;2023-02-01T07:00:25;17.77;;;5.37;;
5967;SDS011;3010;51.028;4.170;2023-02-01T07:02:52;21.20;;;6.90;;
5967;SDS011;3010;51.028;4.170;2023-02-01T07:05:19;21.60;;;5.80;;
5967;SDS011;3010;51.028;4.170;2023-02-01T07:07:45;24.00;;;6.17;;
5967;SDS011;3010;51.028;4.170;2023-02-01T07:10:12;22.83;;;5.77;;
5967;SDS011;3010;51.028;4.170;2023-02-01T07:12:38;23.77;;;5.93;;
5967;SDS011;3010;51.028;4.170;2023-02-01T07:15:05;16.83;;;5.23;;
5967;SDS011;3010;51.028;4.170;2023-02-01T07:17:32;21.10;;;5.90;;
5967;SDS011;3010;51.028;4.170;2023-02-01T07:19:58;26.20;;;6.60;;
5967;SDS011;3010;51.028;4.170;2023-02-01T07:22:25;13.00;;;5.10;;
5967;SDS011;3010;51.028;4.170;2023-02-01T07:24:52;22.27;;;5.47;;
5967;SDS011;3010;51.028;4.170;2023-02-01T07:27:18;15.90;;;5.57;;
5967;SDS011;3010;51.028;4.170;2023-02-01T07:29:45;15.40;;;5.73;;
5967;SDS011;3010;51.028;4.170;2023-02-01T07:32:11;17.63;;;6.00;;
5967;SDS011;3010;51.028;4.170;2023-02-01T07:34:38;15.97;;;4.80;;
5967;SDS011;3010;51.028;4.170;2023-02-01T07:37:05;22.37;;;5.20;;
5967;SDS011;3010;51.028;4.170;2023-02-01T07:39:31;21.90;;;5.77;;
5967;SDS011;3010;51.028;4.170;2023-02-01T07:41:58;22.27;;;5.70;;
5967;SDS011;3010;51.028;4.170;2023-02-01T07:44:24;20.97;;;5.73;;
5967;SDS011;3010;51.028;4.170;2023-02-01T07:46:51;28.60;;;6.50;;
5967;SDS011;3010;51.028;4.170;2023-02-01T07:49:17;21.17;;;7.07;;
5967;SDS011;3010;51.028;4.170;2023-02-01T07:51:44;15.70;;;5.50;;
5967;SDS011;3010;51.028;4.170;2023-02-01T07:54:11;18.50;;;6.20;;
5967;SDS011;3010;51.028;4.170;2023-02-01T07:56:37;20.63;;;6.77;;
5967;SDS011;3010;51.028;4.170;2023-02-01T07:59:04;26.50;;;6.40;;
5967;SDS011;3010;51.028;4.170;2023-02-01T08:01:30;20.90;;;6.73;;
5967;SDS011;3010;51.028;4.170;2023-02-01T08:03:57;19.27;;;5.90;;
5967;SDS011;3010;51.028;4.170;2023-02-01T08:06:24;26.77;;;8.27;;
5967;SDS011;3010;51.028;4.170;2023-02-01T08:08:50;20.47;;;5.47;;
5967;SDS011;3010;51.028;4.170;2023-02-01T08:11:17;20.17;;;6.70;;
5967;SDS011;3010;51.028;4.170;2023-02-01T08:13:43;19.07;;;5.77;;
5967;SDS011;3010;51.028;4.170;2023-02-01T08:16:10;19.97;;;6.13;;
5967;SDS011;3010;51.028;4.170;2023-02-01T08:18:36;21.30;;;6.23;;
5967;SDS011;3010;51.028;4.170;2023-02-01T08:21:04;13.40;;;5.97;;
5967;SDS011;3010;51.028;4.170;2023-02-01T08:23:30;17.60;;;6.00;;
5967;SDS011;3010;51.028;4.170;2023-02-01T08:26:10;15.60;;;6.23;;
5967;SDS011;3010;51.028;4.170;2023-02-01T08:28:35;23.33;;;7.93;;
5967;SDS011;3010;51.028;4.170;2023-02-01T08:31:05;24.37;;;7.17;;
5967;SDS011;3010;51.028;4.170;2023-02-01T08:33:34;24.53;;;7.30;;
5967;SDS011;3010;51.028;4.170;2023-02-01T08:36:02;27.63;;;7.27;;
5967;SDS011;3010;51.028;4.170;2023-02-01T08:38:28;26.53;;;7.30;;
5967;SDS011;3010;51.028;4.170;2023-02-01T08:40:55;26.35;;;8.23;;
5967;SDS011;3010;51.028;4.170;2023-02-01T08:43:21;22.23;;;7.40;;
5967;SDS011;3010;51.028;4.170;2023-02-01T08:45:48;29.30;;;7.27;;
5967;SDS011;3010;51.028;4.170;2023-02-01T08:48:14;29.42;;;8.10;;
5967;SDS011;3010;51.028;4.170;2023-02-01T08:50:41;29.83;;;7.83;;
5967;SDS011;3010;51.028;4.170;2023-02-01T08:53:07;20.27;;;6.67;;
5967;SDS011;3010;51.028;4.170;2023-02-01T08:55:34;14.60;;;6.30;;
5967;SDS011;3010;51.028;4.170;2023-02-01T08:58:01;18.50;;;6.30;;
5967;SDS011;3010;51.028;4.170;2023-02-01T09:00:27;26.60;;;8.65;;
5967;SDS011;3010;51.028;4.170;2023-02-01T09:02:54;24.87;;;6.73;;
5967;SDS011;3010;51.028;4.170;2023-02-01T09:05:20;32.13;;;8.15;;
5967;SDS011;3010;51.028;4.170;2023-02-01T09:07:47;21.73;;;6.80;;
5967;SDS011;3010;51.028;4.170;2023-02-01T09:10:13;14.87;;;5.73;;
5967;SDS011;3010;51.028;4.170;2023-02-01T09:12:40;23.60;;;6.23;;
5967;SDS011;3010;51.028;4.170;2023-02-01T09:15:07;21.87;;;5.80;;
5967;SDS011;3010;51.028;4.170;2023-02-01T09:17:33;22.33;;;6.43;;
5967;SDS011;3010;51.028;4.170;2023-02-01T09:20:00;25.40;;;6.20;;
5967;SDS011;3010;51.028;4.170;2023-02-01T09:22:27;21.63;;;6.73;;
5967;SDS011;3010;51.028;4.170;2023-02-01T09:24:53;22.30;;;5.73;;
5967;SDS011;3010;51.028;4.170;2023-02-01T09:27:20;22.53;;;5.97;;
5967;SDS011;3010;51.028;4.170;2023-02-01T09:29:46;23.23;;;6.77;;
5967;SDS011;3010;51.028;4.170;2023-02-01T09:32:13;18.03;;;5.93;;
5967;SDS011;3010;51.028;4.170;2023-02-01T09:34:39;17.90;;;6.57;;
5967;SDS011;3010;51.028;4.170;2023-02-01T09:37:06;16.27;;;5.23;;
5967;SDS011;3010;51.028;4.170;2023-02-01T09:39:33;15.03;;;5.47;;
5967;SDS011;3010;51.028;4.170;2023-02-01T09:42:02;20.10;;;5.67;;
5967;SDS011;3010;51.028;4.170;2023-02-01T09:44:42;24.57;;;6.23;;
5967;SDS011;3010;51.028;4.170;2023-02-01T09:47:01;13.30;;;5.20;;
5967;SDS011;3010;51.028;4.170;2023-02-01T09:49:29;23.20;;;5.37;;
5967;SDS011;3010;51.028;4.170;2023-02-01T09:51:54;23.47;;;5.20;;
5967;SDS011;3010;51.028;4.170;2023-02-01T09:54:25;14.33;;;4.87;;
5967;SDS011;3010;51.028;4.170;2023-02-01T10:02:04;16.47;;;4.67;;
5967;SDS011;3010;51.028;4.170;2023-02-01T10:04:30;26.20;;;6.47;;
5967;SDS011;3010;51.028;4.170;2023-02-01T10:07:06;16.60;;;4.60;;
5967;SDS011;3010;51.028;4.170;2023-02-01T10:09:33;18.20;;;5.20;;
5967;SDS011;3010;51.028;4.170;2023-02-01T10:15:10;15.43;;;4.17;;
5967;SDS011;3010;51.028;4.170;2023-02-01T10:17:51;15.57;;;3.77;;
5967;SDS011;3010;51.028;4.170;2023-02-01T10:23:24;15.73;;;5.00;;
5967;SDS011;3010;51.028;4.170;2023-02-01T10:25:51;11.80;;;4.03;;
5967;SDS011;3010;51.028;4.170;2023-02-01T10:28:16;15.77;;;4.03;;
5967;SDS011;3010;51.028;4.170;2023-02-01T10:30:43;12.03;;;3.80;;
5967;SDS011;3010;51.028;4.170;2023-02-01T10:33:16;16.30;;;5.03;;
5967;SDS011;3010;51.028;4.170;2023-02-01T10:35:41;11.33;;;4.53;;
5967;SDS011;3010;51.028;4.170;2023-02-01T10:38:24;12.77;;;4.00;;
5967;SDS011;3010;51.028;4.170;2023-02-01T10:40:53;14.37;;;4.50;;
5967;SDS011;3010;51.028;4.170;2023-02-01T10:43:18;13.93;;;4.20;;
5967;SDS011;3010;51.028;4.170;2023-02-01T10:45:45;12.63;;;3.97;;
5967;SDS011;3010;51.028;4.170;2023-02-01T10:48:11;16.73;;;4.10;;
5967;SDS011;3010;51.028;4.170;2023-02-01T10:50:44;19.55;;;5.70;;
5967;SDS011;3010;51.028;4.170;2023-02-01T10:55:50;11.93;;;4.00;;
5967;SDS011;3010;51.028;4.170;2023-02-01T10:58:16;13.00;;;3.87;;
5967;SDS011;3010;51.028;4.170;2023-02-01T11:06:25;13.47;;;4.00;;
5967;SDS011;3010;51.028;4.170;2023-02-01T11:09:09;13.80;;;3.70;;
5967;SDS011;3010;51.028;4.170;2023-02-01T11:11:27;14.87;;;4.20;;
5967;SDS011;3010;51.028;4.170;2023-02-01T11:13:55;15.87;;;4.63;;
5967;SDS011;3010;51.028;4.170;2023-02-01T11:16:21;11.60;;;3.90;;
5967;SDS011;3010;51.028;4.170;2023-02-01T11:18:52;9.90;;;3.30;;
5967;SDS011;3010;51.028;4.170;2023-02-01T11:21:14;15.43;;;3.73;;
5967;SDS011;3010;51.028;4.170;2023-02-01T11:23:42;16.50;;;4.57;;
5967;SDS011;3010;51.028;4.170;2023-02-01T11:26:11;12.17;;;4.10;;
5967;SDS011;3010;51.028;4.170;2023-02-01T11:28:40;16.17;;;4.62;;
5967;SDS011;3010;51.028;4.170;2023-02-01T11:31:08;17.57;;;4.40;;
5967;SDS011;3010;51.028;4.170;2023-02-01T11:33:36;11.23;;;3.43;;
5967;SDS011;3010;51.028;4.170;2023-02-01T11:36:07;13.10;;;3.77;;
5967;SDS011;3010;51.028;4.170;2023-02-01T11:38:33;8.93;;;3.60;;
5967;SDS011;3010;51.028;4.170;2023-02-01T11:41:13;13.90;;;3.13;;
5967;SDS011;3010;51.028;4.170;2023-02-01T11:43:49;9.90;;;3.23;;
5967;SDS011;3010;51.028;4.170;2023-02-01T11:46:14;13.40;;;3.87;;
5967;SDS011;3010;51.028;4.170;2023-02-01T11:48:32;11.33;;;3.80;;
5967;SDS011;3010;51.028;4.170;2023-02-01T11:51:08;11.17;;;4.00;;
5967;SDS011;3010;51.028;4.170;2023-02-01T11:53:59;8.57;;;3.70;;
5967;SDS011;3010;51.028;4.170;2023-02-01T11:56:46;8.10;;;3.50;;
5967;SDS011;3010;51.028;4.170;2023-02-01T12:01:50;18.03;;;3.90;;
5967;SDS011;3010;51.028;4.170;2023-02-01T12:04:20;9.93;;;3.30;;
5967;SDS011;3010;51.028;4.170;2023-02-01T12:07:09;4.07;;;2.53;;
5967;SDS011;3010;51.028;4.170;2023-02-01T12:37:34;13.05;;;3.80;;
5967;SDS011;3010;51.028;4.170;2023-02-01T12:43:55;9.23;;;3.27;;
5967;SDS011;3010;51.028;4.170;2023-02-01T12:45:45;7.90;;;3.27;;
5967;SDS011;3010;51.028;4.170;2023-02-01T12:48:21;11.37;;;3.40;;
5967;SDS011;3010;51.028;4.170;2023-02-01T12:50:51;14.83;;;3.27;;
5967;SDS011;3010;51.028;4.170;2023-02-01T12:53:19;8.10;;;3.00;;
5967;SDS011;3010;51.028;4.170;2023-02-01T12:55:50;7.13;;;2.97;;
5967;SDS011;3010;51.028;4.170;2023-02-01T13:06:19;13.37;;;3.30;;
5967;SDS011;3010;51.028;4.170;2023-02-01T13:08:51;10.03;;;3.17;;
5967;SDS011;3010;51.028;4.170;2023-02-01T13:11:17;8.63;;;3.57;;
5967;SDS011;3010;51.028;4.170;2023-02-01T13:16:24;9.97;;;3.27;;
5967;SDS011;3010;51.028;4.170;2023-02-01T13:18:50;10.67;;;3.63;;
5967;SDS011;3010;51.028;4.170;2023-02-01T13:21:26;10.43;;;3.50;;
5967;SDS011;3010;51.028;4.170;2023-02-01T13:23:52;14.10;;;3.60;;
5967;SDS011;3010;51.028;4.170;2023-02-01T13:26:19;11.23;;;3.30;;
5967;SDS011;3010;51.028;4.170;2023-02-01T13:28:52;7.83;;;3.20;;
5967;SDS011;3010;51.028;4.170;2023-02-01T13:37:19;9.63;;;2.87;;
5967;SDS011;3010;51.028;4.170;2023-02-01T13:40:09;7.83;;;2.97;;
5967;SDS011;3010;51.028;4.170;2023-02-01T13:42:51;16.37;;;4.23;;
5967;SDS011;3010;51.028;4.170;2023-02-01T13:45:17;13.57;;;6.30;;
5967;SDS011;3010;51.028;4.170;2023-02-01T13:47:46;15.73;;;5.77;;
5967;SDS011;3010;51.028;4.170;2023-02-01T13:50:16;11.90;;;3.60;;
5967;SDS011;3010;51.028;4.170;2023-02-01T13:53:01;9.10;;;2.77;;
5967;SDS011;3010;51.028;4.170;2023-02-01T13:57:48;9.07;;;3.10;;
5967;SDS011;3010;51.028;4.170;2023-02-01T14:03:02;11.55;;;3.70;;
5967;SDS011;3010;51.028;4.170;2023-02-01T14:13:25;10.20;;;2.97;;
5967;SDS011;3010;51.028;4.170;2023-02-01T14:31:40;6.03;;;2.67;;
5967;SDS011;3010;51.028;4.170;2023-02-01T14:34:26;11.27;;;3.47;;
5967;SDS011;3010;51.028;4.170;2023-02-01T14:36:56;9.07;;;3.53;;
5967;SDS011;3010;51.028;4.170;2023-02-01T14:39:19;10.67;;;3.37;;
5967;SDS011;3010;51.028;4.170;2023-02-01T14:41:46;16.93;;;4.17;;
5967;SDS011;3010;51.028;4.170;2023-02-01T14:44:13;16.30;;;3.77;;
5967;SDS011;3010;51.028;4.170;2023-02-01T14:49:30;9.57;;;3.00;;
5967;SDS011;3010;51.028;4.170;2023-02-01T14:51:59;8.53;;;3.83;;
5967;SDS011;3010;51.028;4.170;2023-02-01T14:54:25;12.50;;;4.50;;
5967;SDS011;3010;51.028;4.170;2023-02-01T14:56:52;9.73;;;3.80;;
5967;SDS011;3010;51.028;4.170;2023-02-01T14:59:18;11.73;;;4.30;;
5967;SDS011;3010;51.028;4.170;2023-02-01T15:01:49;15.33;;;3.77;;
5967;SDS011;3010;51.028;4.170;2023-02-01T15:04:16;11.07;;;4.30;;
5967;SDS011;3010;51.028;4.170;2023-02-01T15:06:52;11.50;;;3.73;;
5967;SDS011;3010;51.028;4.170;2023-02-01T15:09:15;12.20;;;3.70;;
5967;SDS011;3010;51.028;4.170;2023-02-01T15:14:30;16.02;;;4.30;;
5967;SDS011;3010;51.028;4.170;2023-02-01T15:16:54;16.00;;;4.40;;
5967;SDS011;3010;51.028;4.170;2023-02-01T15:19:22;15.27;;;4.20;;
5967;SDS011;3010;51.028;4.170;2023-02-01T15:21:49;21.17;;;4.73;;
5967;SDS011;3010;51.028;4.170;2023-02-01T15:24:18;12.57;;;4.27;;
5967;SDS011;3010;51.028;4.170;2023-02-01T15:26:41;15.18;;;4.80;;
5967;SDS011;3010;51.028;4.170;2023-02-01T15:29:11;11.33;;;3.80;;
5967;SDS011;3010;51.028;4.170;2023-02-01T15:31:43;11.63;;;4.30;;
5967;SDS011;3010;51.028;4.170;2023-02-01T15:34:10;16.33;;;3.77;;
5967;SDS011;3010;51.028;4.170;2023-02-01T15:36:36;9.70;;;3.60;;
5967;SDS011;3010;51.028;4.170;2023-02-01T15:39:22;11.37;;;3.87;;
5967;SDS011;3010;51.028;4.170;2023-02-01T15:41:48;12.67;;;3.47;;
5967;SDS011;3010;51.028;4.170;2023-02-01T15:46:46;10.50;;;3.50;;
5967;SDS011;3010;51.028;4.170;2023-02-01T15:49:16;16.93;;;3.90;;
5967;SDS011;3010;51.028;4.170;2023-02-01T15:51:45;13.37;;;3.73;;
5967;SDS011;3010;51.028;4.170;2023-02-01T15:54:18;14.30;;;4.63;;
5967;SDS011;3010;51.028;4.170;2023-02-01T15:56:50;13.80;;;4.60;;
5967;SDS011;3010;51.028;4.170;2023-02-01T15:59:21;16.37;;;4.70;;
5967;SDS011;3010;51.028;4.170;2023-02-01T16:01:49;10.80;;;3.93;;
5967;SDS011;3010;51.028;4.170;2023-02-01T16:04:19;16.95;;;4.95;;
5967;SDS011;3010;51.028;4.170;2023-02-01T16:06:48;17.97;;;4.70;;
5967;SDS011;3010;51.028;4.170;2023-02-01T16:09:21;15.80;;;4.57;;
5967;SDS011;3010;51.028;4.170;2023-02-01T16:11:47;13.33;;;3.63;;
5967;SDS011;3010;51.028;4.170;2023-02-01T16:14:14;12.70;;;3.30;;
5967;SDS011;3010;51.028;4.170;2023-02-01T16:16:40;11.27;;;4.00;;
5967;SDS011;3010;51.028;4.170;2023-02-01T16:19:07;8.27;;;3.27;;
5967;SDS011;3010;51.028;4.170;2023-02-01T16:21:33;13.70;;;4.70;;
5967;SDS011;3010;51.028;4.170;2023-02-01T16:24:00;16.62;;;4.80;;
5967;SDS011;3010;51.028;4.170;2023-02-01T16:26:27;14.17;;;3.97;;
5967;SDS011;3010;51.028;4.170;2023-02-01T16:28:53;14.57;;;4.57;;
5967;SDS011;3010;51.028;4.170;2023-02-01T16:31:21;13.37;;;3.93;;
5967;SDS011;3010;51.028;4.170;2023-02-01T16:33:48;18.77;;;4.20;;
5967;SDS011;3010;51.028;4.170;2023-02-01T16:36:13;11.93;;;3.67;;
5967;SDS011;3010;51.028;4.170;2023-02-01T16:38:40;11.93;;;4.00;;
5967;SDS011;3010;51.028;4.170;2023-02-01T16:41:06;13.47;;;3.93;;
5967;SDS011;3010;51.028;4.170;2023-02-01T16:43:33;14.47;;;4.83;;
5967;SDS011;3010;51.028;4.170;2023-02-01T16:46:00;14.53;;;4.33;;
5967;SDS011;3010;51.028;4.170;2023-02-01T16:48:27;15.57;;;4.87;;
5967;SDS011;3010;51.028;4.170;2023-02-01T16:50:58;12.20;;;4.53;;
5967;SDS011;3010;51.028;4.170;2023-02-01T16:53:24;11.53;;;4.47;;
5967;SDS011;3010;51.028;4.170;2023-02-01T16:55:51;18.33;;;4.63;;
5967;SDS011;3010;51.028;4.170;2023-02-01T16:58:18;17.97;;;4.70;;
5967;SDS011;3010;51.028;4.170;2023-02-01T17:00:44;19.47;;;5.50;;
5967;SDS011;3010;51.028;4.170;2023-02-01T17:03:11;18.13;;;5.30;;
5967;SDS011;3010;51.028;4.170;2023-02-01T17:05:37;16.80;;;5.03;;
5967;SDS011;3010;51.028;4.170;2023-02-01T17:08:04;17.60;;;5.30;;
5967;SDS011;3010;51.028;4.170;2023-02-01T17:10:30;16.27;;;4.63;;
5967;SDS011;3010;51.028;4.170;2023-02-01T17:12:57;16.27;;;4.50;;
5967;SDS011;3010;51.028;4.170;2023-02-01T17:15:24;19.73;;;5.63;;
5967;SDS011;3010;51.028;4.170;2023-02-01T17:17:50;14.63;;;5.33;;
5967;SDS011;3010;51.028;4.170;2023-02-01T17:20:20;24.70;;;5.93;;
5967;SDS011;3010;51.028;4.170;2023-02-01T17:22:46;19.10;;;5.00;;
5967;SDS011;3010;51.028;4.170;2023-02-01T17:25:15;20.25;;;6.25;;
5967;SDS011;3010;51.028;4.170;2023-02-01T17:27:44;18.37;;;6.33;;
5967;SDS011;3010;51.028;4.170;2023-02-01T17:30:11;28.17;;;5.50;;
5967;SDS011;3010;51.028;4.170;2023-02-01T17:32:38;16.57;;;6.13;;
5967;SDS011;3010;51.028;4.170;2023-02-01T17:35:05;18.87;;;6.70;;